createdAt,value
2019-02-05T00:01:09.000Z,1016.039
2019-02-05T00:11:09.000Z,1016.082
2019-02-05T00:21:09.000Z,1016.166
2019-02-05T00:31:09.000Z,1016.367
2019-02-05T00:41:09.000Z,1016.405
2019-02-05T00:51:09.000Z,1016.424
2019-02-05T01:01:09.000Z,1016.517
2019-02-05T01:11:09.000Z,1016.754
2019-02-05T01:21:09.000Z,1016.582
2019-02-05T01:31:10.000Z,1016.503
2019-02-05T01:41:10.000Z,1016.449
2019-02-05T01:51:10.000Z,1016.556
2019-02-05T02:01:10.000Z,1016.623
2019-02-05T02:11:10.000Z,1016.666
2019-02-05T02:21:10.000Z,1016.531
2019-02-05T02:31:10.000Z,1016.513
2019-02-05T02:41:10.000Z,1016.551
2019-02-05T02:51:11.000Z,1016.653
2019-02-05T03:01:10.000Z,1016.69
2019-02-05T03:11:10.000Z,1016.631
2019-02-05T03:21:12.000Z,1016.715
2019-02-05T03:31:10.000Z,1016.717
2019-02-05T03:41:12.000Z,1016.739
2019-02-05T03:51:10.000Z,1016.833
2019-02-05T04:01:10.000Z,1016.851
2019-02-05T04:11:10.000Z,1016.772
2019-02-05T04:31:10.000Z,1016.686
2019-02-05T04:41:10.000Z,1016.863
2019-02-05T04:51:10.000Z,1016.856
2019-02-05T05:01:10.000Z,1016.921
2019-02-05T05:11:10.000Z,1017.002
2019-02-05T05:21:10.000Z,1016.994
2019-02-05T05:31:10.000Z,1016.958
2019-02-05T05:41:10.000Z,1016.985
2019-02-05T05:51:10.000Z,1017.21
2019-02-05T06:01:10.000Z,1017.19
2019-02-05T06:11:10.000Z,1017.304
2019-02-05T06:21:10.000Z,1017.44
2019-02-05T06:31:10.000Z,1017.454
2019-02-05T06:41:10.000Z,1017.469
2019-02-05T06:51:10.000Z,1017.567
2019-02-05T07:01:10.000Z,1017.657
2019-02-05T07:11:10.000Z,1017.763
2019-02-05T07:21:10.000Z,1017.848
2019-02-05T07:31:10.000Z,1017.975
2019-02-05T07:41:10.000Z,1018.015
2019-02-05T07:51:10.000Z,1018.097
2019-02-05T08:01:10.000Z,1018.304
2019-02-05T08:11:10.000Z,1018.468
2019-02-05T08:21:10.000Z,1018.637
2019-02-05T08:31:10.000Z,1018.597
2019-02-05T08:41:10.000Z,1018.659
2019-02-05T08:51:10.000Z,1018.79
2019-02-05T09:01:10.000Z,1018.862
2019-02-05T09:11:11.000Z,1018.921
2019-02-05T09:21:10.000Z,1019.066
2019-02-05T09:31:10.000Z,1019.27
2019-02-05T09:41:10.000Z,1019.367
2019-02-05T09:51:10.000Z,1019.512
2019-02-05T10:01:11.000Z,1019.586
2019-02-05T10:11:11.000Z,1019.722
2019-02-05T10:21:11.000Z,1019.851
2019-02-05T10:31:11.000Z,1019.918
2019-02-05T10:41:11.000Z,1019.854
2019-02-05T10:51:11.000Z,1019.778
2019-02-05T11:01:11.000Z,1019.796
2019-02-05T11:11:11.000Z,1019.867
2019-02-05T11:21:11.000Z,1019.771
2019-02-05T11:31:11.000Z,1019.699
2019-02-05T11:41:11.000Z,1019.687
2019-02-05T11:51:11.000Z,1019.707
2019-02-05T12:01:11.000Z,1019.681
2019-02-05T12:11:11.000Z,1019.663
2019-02-05T12:21:11.000Z,1019.688
2019-02-05T12:31:11.000Z,1019.623
2019-02-05T12:41:11.000Z,1019.636
2019-02-05T12:51:11.000Z,1019.625
2019-02-05T13:01:11.000Z,1019.7
2019-02-05T13:11:11.000Z,1019.798
2019-02-05T13:21:11.000Z,1019.766
2019-02-05T13:31:11.000Z,1019.773
2019-02-05T13:41:11.000Z,1019.791
2019-02-05T13:51:11.000Z,1019.818
2019-02-05T14:01:11.000Z,1019.854
2019-02-05T14:11:11.000Z,1019.858
2019-02-05T14:21:11.000Z,1019.865
2019-02-05T14:31:11.000Z,1019.864
2019-02-05T14:41:12.000Z,1019.815
2019-02-05T14:51:11.000Z,1019.822
2019-02-05T15:01:11.000Z,1019.81
2019-02-05T15:11:11.000Z,1019.792
2019-02-05T15:21:11.000Z,1019.839
2019-02-05T15:31:11.000Z,1019.813
2019-02-05T15:41:11.000Z,1019.88
2019-02-05T15:51:12.000Z,1019.806
2019-02-05T16:01:11.000Z,1019.754
2019-02-05T16:11:11.000Z,1019.777
2019-02-05T16:21:11.000Z,1019.743
2019-02-05T16:31:11.000Z,1019.839
2019-02-05T16:41:11.000Z,1019.863
2019-02-05T16:51:11.000Z,1019.836
2019-02-05T17:01:11.000Z,1019.801
2019-02-05T17:11:11.000Z,1019.83
2019-02-05T17:21:11.000Z,1019.883
2019-02-05T17:31:11.000Z,1019.858
2019-02-05T17:41:11.000Z,1019.798
2019-02-05T17:51:11.000Z,1019.785
2019-02-05T18:01:11.000Z,1019.641
2019-02-05T18:11:12.000Z,1019.577
2019-02-05T18:21:11.000Z,1019.538
2019-02-05T18:31:12.000Z,1019.501
2019-02-05T18:41:12.000Z,1019.568
2019-02-05T18:51:12.000Z,1019.468
2019-02-05T19:01:12.000Z,1019.415
2019-02-05T19:11:12.000Z,1019.332
2019-02-05T19:21:12.000Z,1019.291
2019-02-05T19:31:12.000Z,1019.394
2019-02-05T19:41:12.000Z,1019.366
2019-02-05T19:51:12.000Z,1019.486
2019-02-05T20:01:12.000Z,1019.526
2019-02-05T20:11:12.000Z,1019.398
2019-02-05T20:21:12.000Z,1019.312
2019-02-05T20:31:12.000Z,1019.243
2019-02-05T20:51:12.000Z,1019.407
2019-02-05T21:01:12.000Z,1019.418
2019-02-05T21:11:12.000Z,1019.471
2019-02-05T21:21:12.000Z,1019.376
2019-02-05T21:31:12.000Z,1019.404
2019-02-05T21:41:13.000Z,1019.447
2019-02-05T21:51:14.000Z,1019.309
2019-02-05T22:01:15.000Z,1019.2
2019-02-05T22:11:12.000Z,1019.422
2019-02-05T22:21:12.000Z,1019.405
2019-02-05T22:31:12.000Z,1019.286
2019-02-05T22:41:12.000Z,1019.293
2019-02-05T22:51:12.000Z,1019.268
2019-02-05T23:01:12.000Z,1019.1
2019-02-05T23:11:12.000Z,1018.998
2019-02-05T23:21:12.000Z,1019.014
2019-02-05T23:31:12.000Z,1018.944
2019-02-05T23:41:12.000Z,1018.875
2019-02-05T23:51:13.000Z,1018.838
